createdAt,value
2022-08-20T00:00:00.323Z,22
2022-08-20T00:05:00.178Z,22
2022-08-20T00:10:00.163Z,21.9
2022-08-20T00:15:00.140Z,21.9
2022-08-20T00:20:00.266Z,21.8
2022-08-20T00:25:00.251Z,21.8
2022-08-20T00:30:00.240Z,21.6
2022-08-20T00:35:00.130Z,21.4
2022-08-20T00:40:00.436Z,21.3
2022-08-20T00:45:00.133Z,21.2
2022-08-20T00:50:00.225Z,21
2022-08-20T00:55:00.197Z,21
2022-08-20T01:00:00.288Z,20.9
2022-08-20T01:05:00.156Z,20.9
2022-08-20T01:10:00.211Z,20.8
2022-08-20T01:15:00.223Z,20.8
2022-08-20T01:20:00.223Z,20.7
2022-08-20T01:25:00.143Z,20.6
2022-08-20T01:30:00.269Z,20.6
2022-08-20T01:35:00.141Z,20.4
2022-08-20T01:40:00.381Z,20.1
2022-08-20T01:45:00.526Z,20
2022-08-20T01:50:00.296Z,19.8
2022-08-20T01:55:00.186Z,19.6
2022-08-20T02:00:00.239Z,19.5
2022-08-20T02:05:00.217Z,19.5
2022-08-20T02:10:00.233Z,19.4
2022-08-20T02:15:00.253Z,19.4
2022-08-20T02:20:00.263Z,19.4
2022-08-20T02:25:00.119Z,19.4
2022-08-20T02:30:00.271Z,19.4
2022-08-20T02:35:00.255Z,19.4
2022-08-20T02:40:00.324Z,19.4
2022-08-20T02:45:00.127Z,19.4
2022-08-20T02:50:00.296Z,19.4
2022-08-20T02:55:00.124Z,19.4
2022-08-20T03:00:00.315Z,19.4
2022-08-20T03:05:00.268Z,19.4
2022-08-20T03:10:00.249Z,19.4
2022-08-20T03:15:00.122Z,19.4
2022-08-20T03:20:00.277Z,19.4
2022-08-20T03:25:00.234Z,19.4
2022-08-20T03:30:00.285Z,19.4
2022-08-20T03:35:00.206Z,19.4
2022-08-20T03:40:00.422Z,19.4
2022-08-20T03:45:00.219Z,19.4
2022-08-20T03:50:00.221Z,19.4
2022-08-20T03:55:00.125Z,19.4
2022-08-20T04:00:00.256Z,19.4
2022-08-20T04:05:00.209Z,19.4
2022-08-20T04:10:00.331Z,19.3
2022-08-20T04:15:00.245Z,19.4
2022-08-20T04:20:00.210Z,19.3
2022-08-20T04:25:00.149Z,19.4
2022-08-20T04:30:00.318Z,19.3
2022-08-20T04:35:00.214Z,19.3
2022-08-20T04:40:00.398Z,19.3
2022-08-20T04:45:00.152Z,19.3
2022-08-20T04:50:00.347Z,19.3
2022-08-20T04:55:00.164Z,19.2
2022-08-20T05:00:00.288Z,19.3
2022-08-20T05:05:00.195Z,19.3
2022-08-20T05:10:00.255Z,19.3
2022-08-20T05:15:00.196Z,19.2
2022-08-20T05:20:00.256Z,19.2
2022-08-20T05:25:00.205Z,19.2
2022-08-20T05:30:00.270Z,19.2
2022-08-20T05:35:00.208Z,19.2
2022-08-20T05:40:00.329Z,19.2
2022-08-20T05:45:00.127Z,19.2
2022-08-20T05:50:00.241Z,19.2
2022-08-20T05:55:00.124Z,19.2
2022-08-20T06:00:00.245Z,19.2
2022-08-20T06:05:00.131Z,19.2
2022-08-20T06:10:00.268Z,19.2
2022-08-20T06:15:00.144Z,19.2
2022-08-20T06:20:00.220Z,19.2
2022-08-20T06:25:00.142Z,19.2
2022-08-20T06:30:00.218Z,19.2
2022-08-20T06:35:00.204Z,19.3
2022-08-20T06:40:00.379Z,19.3
2022-08-20T06:45:00.210Z,19.4
2022-08-20T06:50:00.290Z,19.4
2022-08-20T06:55:00.224Z,19.4
2022-08-20T07:00:00.318Z,19.4
2022-08-20T07:05:00.190Z,19.4
2022-08-20T07:10:00.229Z,19.4
2022-08-20T07:15:00.225Z,19.4
2022-08-20T07:20:00.259Z,19.4
2022-08-20T07:25:00.191Z,19.4
2022-08-20T07:30:01.921Z,19.5
2022-08-20T07:35:00.159Z,19.5
2022-08-20T07:40:00.407Z,19.5
2022-08-20T07:45:00.263Z,19.4
2022-08-20T07:50:00.226Z,19.4
2022-08-20T07:55:00.168Z,19.4
2022-08-20T08:00:00.260Z,19.5
2022-08-20T08:05:00.213Z,19.5
2022-08-20T08:10:00.220Z,19.5
2022-08-20T08:15:00.133Z,19.6
2022-08-20T08:20:00.226Z,19.6
2022-08-20T08:25:00.131Z,19.7
2022-08-20T08:30:00.294Z,19.7
2022-08-20T08:35:00.245Z,19.7
2022-08-20T08:40:00.337Z,19.7
2022-08-20T08:45:00.251Z,19.7
2022-08-20T08:50:00.233Z,19.7
2022-08-20T08:55:00.130Z,19.8
2022-08-20T09:00:04.049Z,19.8
2022-08-20T09:05:00.137Z,19.8
2022-08-20T09:10:00.300Z,19.8
2022-08-20T09:15:00.135Z,19.8
2022-08-20T09:20:00.251Z,19.9
2022-08-20T09:25:00.134Z,19.9
2022-08-20T09:30:00.284Z,19.9
2022-08-20T09:35:00.140Z,19.9
2022-08-20T09:40:00.348Z,20
2022-08-20T09:45:00.134Z,20
2022-08-20T09:50:00.298Z,20.1
2022-08-20T09:55:00.279Z,20.1
2022-08-20T10:00:00.232Z,20.2
2022-08-20T10:05:00.157Z,20.2
2022-08-20T10:10:00.283Z,20.4
2022-08-20T10:15:00.276Z,20.5
2022-08-20T10:20:00.276Z,20.7
2022-08-20T10:25:00.264Z,20.7
2022-08-20T10:30:00.295Z,20.9
2022-08-20T10:35:00.145Z,21
2022-08-20T10:40:00.443Z,21.1
2022-08-20T10:45:00.219Z,21.2
2022-08-20T10:50:00.459Z,21.2
2022-08-20T10:55:00.160Z,21.3
2022-08-20T11:00:00.228Z,21.3
2022-08-20T11:05:00.212Z,21.3
2022-08-20T11:10:00.252Z,21.1
2022-08-20T11:15:00.225Z,21
2022-08-20T11:20:00.272Z,20.9
2022-08-20T11:25:00.222Z,20.8
2022-08-20T11:30:00.304Z,20.7
2022-08-20T11:35:00.133Z,20.7
2022-08-20T11:40:00.402Z,20.7
2022-08-20T11:45:00.129Z,20.8
2022-08-20T11:50:00.223Z,20.8
2022-08-20T11:55:00.207Z,21
2022-08-20T12:00:00.287Z,21.2
2022-08-20T12:05:00.253Z,21.4
2022-08-20T12:10:00.271Z,21.4
2022-08-20T12:15:00.224Z,21.5
2022-08-20T12:20:00.270Z,21.7
2022-08-20T12:25:00.133Z,21.8
2022-08-20T12:30:00.349Z,22
2022-08-20T12:35:00.131Z,22.1
2022-08-20T12:40:00.311Z,22.1
2022-08-20T12:45:00.180Z,22.2
2022-08-20T12:50:00.257Z,22.2
2022-08-20T12:55:00.191Z,22.2
2022-08-20T13:00:00.295Z,22.2
2022-08-20T13:05:04.874Z,22.2
2022-08-20T13:10:00.308Z,22.2
2022-08-20T13:15:00.155Z,22.2
2022-08-20T13:20:00.315Z,22.1
2022-08-20T13:25:00.156Z,22
2022-08-20T13:30:00.217Z,21.9
2022-08-20T13:35:00.264Z,21.8
2022-08-20T13:40:00.474Z,21.8
2022-08-20T13:45:00.167Z,21.8
2022-08-20T13:50:00.315Z,21.8
2022-08-20T13:55:00.213Z,21.9
2022-08-20T14:00:00.285Z,21.9
2022-08-20T14:05:00.139Z,22
2022-08-20T14:10:00.253Z,22
2022-08-20T14:15:00.133Z,22.2
2022-08-20T14:20:01.519Z,22.3
2022-08-20T14:25:00.137Z,22.5
2022-08-20T14:30:00.263Z,22.7
2022-08-20T14:35:00.266Z,22.9
2022-08-20T14:40:00.418Z,23
2022-08-20T14:45:00.204Z,23.1
2022-08-20T14:50:00.298Z,23.2
2022-08-20T14:55:00.191Z,23.2
2022-08-20T15:00:00.303Z,23.2
2022-08-20T15:05:00.228Z,23.2
2022-08-20T15:10:00.268Z,23.2
2022-08-20T15:15:04.760Z,23.2
2022-08-20T15:20:00.193Z,23.1
2022-08-20T15:25:00.187Z,23
2022-08-20T15:30:00.425Z,23
2022-08-20T15:35:00.129Z,23
2022-08-20T15:40:00.461Z,22.9
2022-08-20T15:45:00.140Z,22.9
2022-08-20T15:50:00.506Z,22.9
2022-08-20T15:55:00.124Z,22.8
2022-08-20T16:00:00.263Z,22.8
2022-08-20T16:05:00.227Z,22.8
2022-08-20T16:10:00.275Z,22.8
2022-08-20T16:15:00.170Z,22.9
2022-08-20T16:20:00.257Z,23
2022-08-20T16:25:00.212Z,23
2022-08-20T16:30:00.340Z,23.2
2022-08-20T16:35:00.207Z,23.3
2022-08-20T16:40:00.378Z,23.4
2022-08-20T16:45:00.214Z,23.5
2022-08-20T16:50:00.247Z,23.6
2022-08-20T16:55:00.164Z,23.6
2022-08-20T17:00:00.257Z,23.7
2022-08-20T17:05:00.467Z,23.7
2022-08-20T17:10:00.331Z,23.7
2022-08-20T17:15:00.132Z,23.6
2022-08-20T17:20:00.307Z,23.6
2022-08-20T17:25:00.186Z,23.5
2022-08-20T17:30:00.293Z,23.4
2022-08-20T17:35:00.150Z,23.4
2022-08-20T17:40:00.322Z,23.4
2022-08-20T17:45:00.193Z,23.4
2022-08-20T17:50:02.608Z,23.4
2022-08-20T17:55:00.139Z,23.3
2022-08-20T18:00:02.412Z,23.2
2022-08-20T18:05:00.281Z,23.2
2022-08-20T18:10:00.269Z,23.1
2022-08-20T18:15:00.235Z,23.1
2022-08-20T18:20:00.346Z,23
2022-08-20T18:25:00.123Z,23
2022-08-20T18:30:00.344Z,22.9
2022-08-20T18:35:03.785Z,22.8
2022-08-20T18:40:00.319Z,22.8
2022-08-20T18:45:00.205Z,22.7
2022-08-20T18:50:00.239Z,22.7
2022-08-20T18:55:00.133Z,22.6
2022-08-20T19:00:00.198Z,22.6
2022-08-20T19:05:02.960Z,22.6
2022-08-20T19:10:00.229Z,22.5
2022-08-20T19:15:00.244Z,22.4
2022-08-20T19:20:00.221Z,22.4
2022-08-20T19:25:00.161Z,22.2
2022-08-20T19:30:00.239Z,22.1
2022-08-20T19:35:00.210Z,22
2022-08-20T19:40:00.297Z,21.8
2022-08-20T19:45:00.213Z,21.8
2022-08-20T19:50:00.234Z,21.6
2022-08-20T19:55:03.839Z,21.5
2022-08-20T20:00:01.104Z,21.4
2022-08-20T20:05:00.211Z,21.2
2022-08-20T20:10:00.239Z,21
2022-08-20T20:15:00.136Z,21
2022-08-20T20:20:00.275Z,20.8
2022-08-20T20:25:00.136Z,20.7
2022-08-20T20:30:00.303Z,20.6
2022-08-20T20:35:00.173Z,20.5
2022-08-20T20:40:01.249Z,20.4
2022-08-20T20:45:00.239Z,20.2
2022-08-20T20:50:00.273Z,20.2
2022-08-20T20:55:00.260Z,20
2022-08-20T21:00:00.331Z,20
2022-08-20T21:05:00.176Z,19.8
2022-08-20T21:10:00.310Z,19.8
2022-08-20T21:15:00.213Z,19.6
2022-08-20T21:20:00.322Z,19.6
2022-08-20T21:25:00.162Z,19.5
2022-08-20T21:30:00.259Z,19.4
2022-08-20T21:35:00.182Z,19.4
2022-08-20T21:40:00.455Z,19.3
2022-08-20T21:45:00.212Z,19.2
2022-08-20T21:50:00.276Z,19.2
2022-08-20T21:55:00.133Z,19.1
2022-08-20T22:00:00.320Z,19.1
2022-08-20T22:05:00.203Z,19.1
2022-08-20T22:10:00.218Z,19
2022-08-20T22:15:00.252Z,19
2022-08-20T22:20:00.331Z,19
2022-08-20T22:25:00.280Z,19
2022-08-20T22:30:00.258Z,18.9
2022-08-20T22:35:00.232Z,18.9
2022-08-20T22:40:00.371Z,18.9
2022-08-20T22:45:00.290Z,18.9
2022-08-20T22:50:00.267Z,18.8
2022-08-20T22:55:00.191Z,18.8
2022-08-20T23:00:00.321Z,18.7
2022-08-20T23:05:00.182Z,18.6
2022-08-20T23:10:00.252Z,18.6
2022-08-20T23:15:00.243Z,18.6
2022-08-20T23:20:00.325Z,18.5
2022-08-20T23:25:00.805Z,18.5
2022-08-20T23:30:00.273Z,18.4
2022-08-20T23:35:00.275Z,18.4
2022-08-20T23:40:00.376Z,18.4
2022-08-20T23:45:00.240Z,18.3
2022-08-20T23:50:00.239Z,18.2
2022-08-20T23:55:00.179Z,18.2
